createdAt,value
2018-06-05T00:00:28.108Z,16.73
2018-06-05T00:02:55.806Z,16.33
2018-06-05T00:05:23.514Z,16.87
2018-06-05T00:07:51.269Z,17.63
2018-06-05T00:10:19.034Z,16.77
2018-06-05T00:12:46.756Z,16.63
2018-06-05T00:15:14.461Z,16.53
2018-06-05T00:17:42.164Z,18.13
2018-06-05T00:20:09.882Z,17.57
2018-06-05T00:22:37.560Z,16.83
2018-06-05T00:25:05.281Z,17.17
2018-06-05T00:27:33.551Z,17.40
2018-06-05T00:30:01.285Z,15.73
2018-06-05T00:32:28.989Z,16.87
2018-06-05T00:34:56.697Z,17.00
2018-06-05T00:37:24.384Z,15.93
2018-06-05T00:39:52.065Z,16.17
2018-06-05T00:42:19.801Z,17.40
2018-06-05T00:44:47.515Z,16.53
2018-06-05T00:47:16.627Z,16.47
2018-06-05T00:49:44.315Z,15.17
2018-06-05T00:52:12.015Z,15.90
2018-06-05T00:54:39.717Z,15.73
2018-06-05T00:57:07.443Z,15.53
2018-06-05T00:59:35.141Z,15.87
2018-06-05T01:02:02.892Z,15.70
2018-06-05T01:04:30.608Z,16.33
2018-06-05T01:06:58.301Z,15.73
2018-06-05T01:09:26.003Z,17.17
2018-06-05T01:11:53.697Z,16.80
2018-06-05T01:14:21.445Z,17.93
2018-06-05T01:16:49.185Z,17.77
2018-06-05T01:19:16.905Z,17.33
2018-06-05T01:21:44.638Z,16.77
2018-06-05T01:24:12.461Z,19.00
2018-06-05T01:26:40.168Z,17.83
2018-06-05T01:29:07.923Z,17.10
2018-06-05T01:31:35.670Z,18.03
2018-06-05T01:34:03.529Z,16.97
2018-06-05T01:36:31.252Z,18.37
2018-06-05T01:38:58.979Z,17.60
2018-06-05T01:41:26.685Z,17.73
2018-06-05T01:43:54.395Z,17.80
2018-06-05T01:46:22.093Z,17.30
2018-06-05T01:48:49.778Z,18.10
2018-06-05T01:51:17.494Z,17.80
2018-06-05T01:53:45.210Z,17.43
2018-06-05T01:56:12.929Z,17.40
2018-06-05T01:58:40.791Z,17.30
2018-06-05T02:01:08.509Z,18.17
2018-06-05T02:03:36.206Z,17.37
2018-06-05T02:06:03.991Z,16.73
2018-06-05T02:08:31.692Z,18.00
2018-06-05T02:10:59.387Z,16.83
2018-06-05T02:13:27.127Z,17.57
2018-06-05T02:15:54.888Z,18.57
2018-06-05T02:18:22.639Z,17.67
2018-06-05T02:20:50.665Z,17.63
2018-06-05T02:23:18.375Z,17.33
2018-06-05T02:25:46.118Z,16.50
2018-06-05T02:28:13.864Z,17.50
2018-06-05T02:30:41.593Z,15.93
2018-06-05T02:33:09.301Z,16.80
2018-06-05T02:35:37.006Z,17.40
2018-06-05T02:38:04.740Z,17.00
2018-06-05T02:40:32.491Z,16.27
2018-06-05T02:43:00.190Z,15.63
2018-06-05T02:45:27.922Z,16.67
2018-06-05T02:47:55.655Z,16.47
2018-06-05T02:50:23.348Z,16.33
2018-06-05T02:52:51.057Z,16.30
2018-06-05T02:55:18.775Z,17.03
2018-06-05T02:57:47.213Z,16.77
2018-06-05T03:00:14.979Z,16.87
2018-06-05T03:02:43.044Z,16.97
2018-06-05T03:05:10.872Z,15.50
2018-06-05T03:07:38.632Z,16.60
2018-06-05T03:10:06.367Z,16.87
2018-06-05T03:12:34.139Z,15.50
2018-06-05T03:15:01.883Z,14.07
2018-06-05T03:17:29.724Z,15.07
2018-06-05T03:19:57.954Z,15.07
2018-06-05T03:22:25.664Z,15.83
2018-06-05T03:24:53.382Z,15.73
2018-06-05T03:27:21.107Z,16.17
2018-06-05T03:29:48.866Z,15.67
2018-06-05T03:32:16.630Z,15.03
2018-06-05T03:34:44.349Z,13.70
2018-06-05T03:37:13.072Z,12.93
2018-06-05T03:39:40.807Z,13.33
2018-06-05T03:42:08.619Z,13.73
2018-06-05T03:44:36.397Z,12.50
2018-06-05T03:47:04.109Z,11.93
2018-06-05T03:49:37.594Z,12.70
2018-06-05T03:52:05.325Z,12.47
2018-06-05T03:54:34.151Z,12.47
2018-06-05T03:57:01.866Z,13.03
2018-06-05T03:59:29.654Z,12.47
2018-06-05T04:01:57.398Z,12.47
2018-06-05T04:04:25.373Z,13.20
2018-06-05T04:06:53.067Z,15.13
2018-06-05T04:09:20.798Z,12.53
2018-06-05T04:11:49.241Z,13.13
2018-06-05T04:14:16.998Z,12.20
2018-06-05T04:16:44.772Z,11.53
2018-06-05T04:19:12.492Z,12.93
2018-06-05T04:21:40.210Z,12.90
2018-06-05T04:24:07.998Z,11.50
2018-06-05T04:26:35.705Z,11.43
2018-06-05T04:29:03.395Z,11.23
2018-06-05T04:31:31.090Z,10.73
2018-06-05T04:33:58.852Z,12.73
2018-06-05T04:36:26.531Z,13.10
2018-06-05T04:38:54.256Z,13.57
2018-06-05T04:41:21.991Z,12.63
2018-06-05T04:43:50.599Z,12.57
2018-06-05T04:46:18.445Z,12.77
2018-06-05T04:48:46.239Z,12.10
2018-06-05T04:51:13.942Z,12.10
2018-06-05T04:53:42.010Z,11.50
2018-06-05T04:56:11.521Z,14.17
2018-06-05T04:58:39.359Z,13.30
2018-06-05T05:01:07.274Z,12.00
2018-06-05T05:03:35.245Z,12.20
2018-06-05T05:06:03.734Z,12.40
2018-06-05T05:08:31.848Z,10.40
2018-06-05T05:11:02.139Z,12.03
2018-06-05T05:13:29.965Z,11.43
2018-06-05T05:15:57.711Z,12.30
2018-06-05T05:18:25.442Z,12.10
2018-06-05T05:20:53.173Z,12.47
2018-06-05T05:23:21.040Z,14.10
2018-06-05T05:25:48.788Z,11.80
2018-06-05T05:28:16.562Z,11.53
2018-06-05T05:30:44.281Z,11.53
2018-06-05T05:33:12.043Z,11.40
2018-06-05T05:35:39.851Z,11.13
2018-06-05T05:38:07.616Z,12.67
2018-06-05T05:40:35.377Z,11.47
2018-06-05T05:43:03.537Z,11.03
2018-06-05T05:45:31.299Z,11.63
2018-06-05T05:47:59.422Z,12.33
2018-06-05T05:50:27.649Z,12.57
2018-06-05T05:52:55.419Z,12.03
2018-06-05T05:55:24.210Z,11.27
2018-06-05T05:57:51.924Z,11.60
2018-06-05T06:00:19.657Z,10.60
2018-06-05T06:02:47.435Z,10.80
2018-06-05T06:05:15.199Z,11.43
2018-06-05T06:07:42.953Z,11.07
2018-06-05T06:10:11.028Z,12.20
2018-06-05T06:12:38.785Z,11.40
2018-06-05T06:15:06.573Z,11.10
2018-06-05T06:17:34.320Z,11.17
2018-06-05T06:20:02.119Z,11.87
2018-06-05T06:22:29.931Z,10.57
2018-06-05T06:24:57.729Z,11.37
2018-06-05T06:27:25.483Z,11.10
2018-06-05T06:29:53.247Z,11.30
2018-06-05T06:32:21.027Z,10.73
2018-06-05T06:34:48.800Z,11.40
2018-06-05T06:37:16.541Z,11.10
2018-06-05T06:39:44.298Z,10.80
2018-06-05T06:42:12.107Z,10.17
2018-06-05T06:44:39.856Z,11.03
2018-06-05T06:47:07.708Z,11.00
2018-06-05T06:49:35.511Z,11.03
2018-06-05T06:52:03.302Z,12.13
2018-06-05T06:54:31.129Z,11.77
2018-06-05T06:56:58.838Z,11.77
2018-06-05T06:59:26.637Z,10.87
2018-06-05T07:01:54.431Z,11.47
2018-06-05T07:04:22.178Z,11.70
2018-06-05T07:06:50.328Z,11.57
2018-06-05T07:09:18.073Z,13.33
2018-06-05T07:11:45.870Z,12.27
2018-06-05T07:14:13.673Z,12.60
2018-06-05T07:16:41.777Z,12.17
2018-06-05T07:19:09.610Z,12.03
2018-06-05T07:21:37.433Z,11.40
2018-06-05T07:24:05.328Z,11.83
2018-06-05T07:26:33.145Z,10.43
2018-06-05T07:29:00.891Z,10.33
2018-06-05T07:31:28.718Z,10.43
2018-06-05T07:33:56.514Z,11.07
2018-06-05T07:36:24.505Z,10.67
2018-06-05T07:38:52.305Z,9.93
2018-06-05T07:41:20.048Z,11.47
2018-06-05T07:43:48.117Z,9.13
2018-06-05T07:46:15.888Z,9.97
2018-06-05T07:48:43.781Z,10.30
2018-06-05T07:51:12.444Z,9.87
2018-06-05T07:53:40.381Z,9.93
2018-06-05T07:56:08.171Z,9.80
2018-06-05T07:58:35.962Z,9.63
2018-06-05T08:01:03.879Z,10.33
2018-06-05T08:03:31.938Z,9.70
2018-06-05T08:06:01.346Z,9.77
2018-06-05T08:08:30.099Z,10.17
2018-06-05T08:10:57.920Z,10.80
2018-06-05T08:13:25.946Z,10.53
2018-06-05T08:15:53.754Z,10.73
2018-06-05T08:18:22.241Z,10.13
2018-06-05T08:20:50.092Z,9.93
2018-06-05T08:23:17.897Z,9.80
2018-06-05T08:25:45.660Z,9.63
2018-06-05T08:28:13.415Z,10.00
2018-06-05T08:30:41.229Z,10.57
2018-06-05T08:33:09.071Z,10.90
2018-06-05T08:35:36.893Z,10.43
2018-06-05T08:38:04.738Z,11.87
2018-06-05T08:40:32.604Z,11.73
2018-06-05T08:43:00.442Z,11.97
2018-06-05T08:45:28.236Z,11.03
2018-06-05T08:47:56.048Z,11.07
2018-06-05T08:50:23.922Z,10.80
2018-06-05T08:52:52.081Z,9.73
2018-06-05T08:55:19.872Z,10.90
2018-06-05T08:57:47.860Z,10.43
2018-06-05T09:00:15.960Z,9.67
2018-06-05T09:02:43.780Z,9.40
2018-06-05T09:05:12.361Z,10.60
2018-06-05T09:07:40.217Z,9.27
2018-06-05T09:10:08.070Z,8.57
2018-06-05T09:12:35.832Z,8.90
2018-06-05T09:15:03.795Z,8.80
2018-06-05T09:17:32.110Z,8.00
2018-06-05T09:19:59.897Z,8.90
2018-06-05T09:22:28.246Z,8.90
2018-06-05T09:24:56.307Z,8.90
2018-06-05T09:27:24.150Z,7.33
2018-06-05T09:29:51.936Z,8.17
2018-06-05T09:32:20.307Z,9.70
2018-06-05T09:34:48.102Z,8.93
2018-06-05T09:37:15.854Z,8.43
2018-06-05T09:39:44.039Z,10.97
2018-06-05T09:42:11.878Z,9.33
2018-06-05T09:44:39.944Z,9.83
2018-06-05T09:47:07.961Z,10.13
2018-06-05T09:49:35.986Z,9.70
2018-06-05T09:52:03.783Z,10.07
2018-06-05T09:54:31.553Z,10.63
2018-06-05T09:56:59.367Z,10.80
2018-06-05T09:59:27.208Z,9.73
2018-06-05T10:01:55.904Z,11.00
2018-06-05T10:04:23.658Z,10.50
2018-06-05T10:06:51.503Z,10.40
2018-06-05T10:09:19.225Z,10.90
2018-06-05T10:11:47.047Z,9.77
2018-06-05T10:14:14.918Z,10.20
2018-06-05T10:16:42.724Z,10.17
2018-06-05T10:19:10.559Z,9.77
2018-06-05T10:21:38.421Z,9.70
2018-06-05T10:24:06.284Z,8.87
2018-06-05T10:26:34.080Z,9.40
2018-06-05T10:29:01.859Z,9.63
2018-06-05T10:31:29.667Z,9.90
2018-06-05T10:33:58.393Z,9.93
2018-06-05T10:36:26.515Z,10.40
2018-06-05T10:38:54.289Z,10.43
2018-06-05T10:41:22.408Z,11.10
2018-06-05T10:43:50.844Z,12.00
2018-06-05T10:46:18.667Z,11.30
2018-06-05T10:48:46.509Z,11.10
2018-06-05T10:51:14.938Z,11.20
2018-06-05T10:53:42.810Z,10.67
2018-06-05T10:56:10.887Z,11.57
2018-06-05T10:58:39.345Z,11.73
2018-06-05T11:01:07.809Z,10.93
2018-06-05T11:03:36.107Z,11.67
2018-06-05T11:06:04.059Z,11.97
2018-06-05T11:08:31.881Z,11.03
2018-06-05T11:11:00.506Z,11.63
2018-06-05T11:13:28.554Z,10.83
2018-06-05T11:15:57.319Z,10.17
2018-06-05T11:18:25.238Z,11.37
2018-06-05T11:20:53.126Z,11.27
2018-06-05T11:23:21.253Z,10.33
2018-06-05T11:25:49.342Z,10.03
2018-06-05T11:28:17.840Z,9.77
2018-06-05T11:30:45.703Z,10.93
2018-06-05T11:33:13.506Z,10.50
2018-06-05T11:35:41.332Z,10.50
2018-06-05T11:38:09.116Z,10.83
2018-06-05T11:40:36.943Z,10.30
2018-06-05T11:43:04.713Z,10.50
2018-06-05T11:45:32.433Z,11.30
2018-06-05T11:48:00.088Z,9.17
2018-06-05T11:50:27.796Z,9.90
2018-06-05T11:52:55.496Z,10.33
2018-06-05T11:55:23.187Z,10.50
2018-06-05T11:57:50.901Z,10.93
2018-06-05T12:00:19.599Z,10.70
2018-06-05T12:02:47.326Z,10.70
2018-06-05T12:05:15.036Z,12.40
2018-06-05T12:07:42.733Z,11.17
2018-06-05T12:10:10.413Z,11.70
2018-06-05T12:12:38.086Z,13.80
2018-06-05T12:15:05.767Z,11.93
2018-06-05T12:17:33.471Z,13.37
2018-06-05T12:20:01.158Z,12.33
2018-06-05T12:22:29.516Z,12.23
2018-06-05T12:24:57.258Z,11.57
2018-06-05T12:27:24.948Z,12.73
2018-06-05T12:29:52.627Z,11.08
2018-06-05T12:32:20.341Z,11.60
2018-06-05T12:34:47.997Z,10.95
2018-06-05T12:37:15.739Z,10.80
2018-06-05T12:39:43.364Z,12.60
2018-06-05T12:42:11.081Z,11.73
2018-06-05T12:44:38.800Z,12.98
2018-06-05T12:47:06.493Z,11.63
2018-06-05T12:49:34.211Z,9.48
2018-06-05T12:52:01.897Z,12.20
2018-06-05T12:54:29.631Z,12.43
2018-06-05T12:56:57.331Z,11.20
2018-06-05T12:59:25.051Z,11.18
2018-06-05T13:01:52.747Z,11.10
2018-06-05T13:04:20.451Z,10.18
2018-06-05T13:06:48.135Z,11.57
2018-06-05T13:09:15.830Z,11.43
2018-06-05T13:11:43.536Z,12.05
2018-06-05T13:14:11.203Z,13.05
2018-06-05T13:16:38.882Z,13.05
2018-06-05T13:19:06.542Z,12.28
2018-06-05T13:21:34.226Z,9.78
2018-06-05T13:24:01.944Z,11.93
2018-06-05T13:26:29.628Z,11.73
2018-06-05T13:28:57.290Z,10.48
2018-06-05T13:31:24.959Z,11.45
2018-06-05T13:33:52.617Z,11.05
2018-06-05T13:36:20.270Z,10.00
2018-06-05T13:38:47.958Z,10.38
2018-06-05T13:41:15.959Z,10.72
2018-06-05T13:43:43.649Z,11.97
2018-06-05T13:46:11.314Z,11.83
2018-06-05T13:48:39.009Z,12.53
2018-06-05T13:51:06.704Z,11.12
2018-06-05T13:53:34.366Z,11.40
2018-06-05T13:56:02.030Z,11.93
2018-06-05T13:58:29.715Z,11.12
2018-06-05T14:00:57.366Z,11.38
2018-06-05T14:03:25.082Z,11.38
2018-06-05T14:05:52.757Z,12.80
2018-06-05T14:08:20.470Z,12.07
2018-06-05T14:10:48.145Z,9.53
2018-06-05T14:13:15.858Z,11.33
2018-06-05T14:15:43.548Z,10.68
2018-06-05T14:18:11.245Z,11.63
2018-06-05T14:20:38.909Z,14.07
2018-06-05T14:23:06.616Z,12.65
2018-06-05T14:25:34.294Z,11.43
2018-06-05T14:28:01.971Z,13.28
2018-06-05T14:30:29.700Z,12.60
2018-06-05T14:32:57.385Z,12.40
2018-06-05T14:35:25.466Z,13.50
2018-06-05T14:37:53.112Z,10.80
2018-06-05T14:40:20.797Z,12.73
2018-06-05T14:42:49.142Z,11.22
2018-06-05T14:45:17.024Z,14.75
2018-06-05T14:47:44.533Z,14.03
2018-06-05T14:50:12.209Z,13.18
2018-06-05T14:52:39.972Z,14.05
2018-06-05T14:55:07.639Z,13.50
2018-06-05T14:57:36.027Z,13.83
2018-06-05T15:00:03.956Z,13.10
2018-06-05T15:02:31.622Z,12.73
2018-06-05T15:05:00.143Z,12.43
2018-06-05T15:07:27.978Z,13.48
2018-06-05T15:09:55.664Z,12.85
2018-06-05T15:12:23.373Z,13.55
2018-06-05T15:14:51.078Z,11.00
2018-06-05T15:17:18.806Z,12.37
2018-06-05T15:19:46.539Z,13.32
2018-06-05T15:22:14.187Z,12.53
2018-06-05T15:24:41.958Z,13.15
2018-06-05T15:27:09.622Z,11.12
2018-06-05T15:29:37.265Z,10.90
2018-06-05T15:32:05.335Z,15.40
2018-06-05T15:34:33.028Z,12.78
2018-06-05T15:37:00.722Z,13.35
2018-06-05T15:39:28.387Z,11.38
2018-06-05T15:41:56.063Z,12.43
2018-06-05T15:44:23.737Z,11.65
2018-06-05T15:46:51.461Z,11.93
2018-06-05T15:49:19.178Z,14.20
2018-06-05T15:51:46.839Z,13.20
2018-06-05T15:54:14.519Z,13.38
2018-06-05T15:56:42.524Z,11.88
2018-06-05T15:59:10.198Z,12.85
2018-06-05T16:01:37.895Z,10.15
2018-06-05T16:04:05.659Z,11.00
2018-06-05T16:06:33.348Z,11.40
2018-06-05T16:09:01.097Z,10.28
2018-06-05T16:11:28.817Z,11.78
2018-06-05T16:13:56.783Z,12.55
2018-06-05T16:16:24.458Z,14.15
2018-06-05T16:18:52.175Z,10.45
2018-06-05T16:21:19.899Z,13.35
2018-06-05T16:23:47.591Z,9.40
2018-06-05T16:26:15.369Z,11.08
2018-06-05T16:28:43.049Z,9.63
2018-06-05T16:31:10.831Z,10.48
2018-06-05T16:33:38.698Z,11.63
2018-06-05T16:36:06.673Z,9.25
2018-06-05T16:38:34.432Z,11.25
2018-06-05T16:41:02.103Z,8.80
2018-06-05T16:43:29.846Z,10.50
2018-06-05T16:45:57.641Z,9.68
2018-06-05T16:48:25.351Z,9.28
2018-06-05T16:50:53.077Z,9.05
2018-06-05T16:53:20.737Z,10.25
2018-06-05T16:55:48.476Z,9.00
2018-06-05T16:58:16.200Z,9.10
2018-06-05T17:00:43.856Z,8.20
2018-06-05T17:03:11.674Z,7.05
2018-06-05T17:05:39.359Z,7.25
2018-06-05T17:08:07.087Z,8.43
2018-06-05T17:10:34.806Z,7.85
2018-06-05T17:13:02.491Z,8.30
2018-06-05T17:15:30.159Z,7.92
2018-06-05T17:17:57.928Z,8.65
2018-06-05T17:20:25.648Z,7.50
2018-06-05T17:22:53.302Z,7.05
2018-06-05T17:25:20.938Z,8.28
2018-06-05T17:27:48.591Z,6.65
2018-06-05T17:30:16.427Z,6.75
2018-06-05T17:32:44.182Z,6.70
2018-06-05T17:35:11.849Z,6.80
2018-06-05T17:37:39.654Z,8.00
2018-06-05T17:40:07.425Z,7.47
2018-06-05T17:42:35.107Z,6.35
2018-06-05T17:45:03.731Z,6.97
2018-06-05T17:47:31.564Z,5.78
2018-06-05T17:49:59.214Z,9.70
2018-06-05T17:52:26.867Z,8.43
2018-06-05T17:54:54.507Z,6.85
2018-06-05T17:57:22.319Z,6.50
2018-06-05T17:59:49.971Z,8.20
2018-06-05T18:02:17.637Z,5.75
2018-06-05T18:04:45.315Z,5.78
2018-06-05T18:07:13.035Z,7.22
2018-06-05T18:09:40.687Z,7.40
2018-06-05T18:12:08.494Z,8.78
2018-06-05T18:14:36.219Z,8.80
2018-06-05T18:17:04.078Z,7.25
2018-06-05T18:19:31.742Z,8.78
2018-06-05T18:21:59.450Z,8.13
2018-06-05T18:24:27.102Z,8.85
2018-06-05T18:26:54.834Z,6.62
2018-06-05T18:29:23.270Z,8.33
2018-06-05T18:31:51.357Z,7.90
2018-06-05T18:34:19.456Z,6.65
2018-06-05T18:36:47.305Z,7.78
2018-06-05T18:39:15.675Z,6.20
2018-06-05T18:41:43.742Z,6.62
2018-06-05T18:44:11.724Z,9.00
2018-06-05T18:46:39.621Z,6.72
2018-06-05T18:49:07.530Z,7.30
2018-06-05T18:51:35.227Z,9.63
2018-06-05T18:54:02.920Z,8.38
2018-06-05T18:56:30.602Z,8.33
2018-06-05T18:58:58.256Z,8.28
2018-06-05T19:01:25.951Z,9.38
2018-06-05T19:03:54.260Z,7.30
2018-06-05T19:06:21.997Z,8.83
2018-06-05T19:08:49.665Z,10.15
2018-06-05T19:11:17.323Z,9.30
2018-06-05T19:13:45.048Z,11.78
2018-06-05T19:16:12.790Z,7.97
2018-06-05T19:18:40.503Z,8.88
2018-06-05T19:21:08.191Z,8.00
2018-06-05T19:23:35.905Z,8.80
2018-06-05T19:26:03.598Z,7.42
2018-06-05T19:28:31.322Z,9.30
2018-06-05T19:30:59.147Z,7.58
2018-06-05T19:33:26.811Z,9.47
2018-06-05T19:35:54.540Z,8.17
2018-06-05T19:38:22.241Z,8.73
2018-06-05T19:40:49.927Z,8.97
2018-06-05T19:43:17.609Z,7.53
2018-06-05T19:45:45.323Z,9.23
2018-06-05T19:48:12.991Z,8.00
2018-06-05T19:50:42.195Z,8.10
2018-06-05T19:53:09.910Z,8.90
2018-06-05T19:55:37.645Z,8.20
2018-06-05T19:58:05.405Z,11.27
2018-06-05T20:00:33.097Z,8.63
2018-06-05T20:03:00.779Z,8.43
2018-06-05T20:05:28.515Z,8.13
2018-06-05T20:07:56.131Z,8.90
2018-06-05T20:10:23.798Z,9.67
2018-06-05T20:12:51.503Z,9.57
2018-06-05T20:15:19.192Z,8.47
2018-06-05T20:17:46.857Z,9.67
2018-06-05T20:20:14.530Z,9.53
2018-06-05T20:22:43.119Z,9.00
2018-06-05T20:25:10.848Z,12.00
2018-06-05T20:27:38.503Z,8.80
2018-06-05T20:30:06.400Z,9.70
2018-06-05T20:32:34.174Z,11.03
2018-06-05T20:35:01.879Z,12.90
2018-06-05T20:37:29.666Z,12.37
2018-06-05T20:39:57.373Z,14.03
2018-06-05T20:42:25.111Z,12.10
2018-06-05T20:44:53.001Z,11.57
2018-06-05T20:47:20.962Z,14.37
2018-06-05T20:49:48.642Z,12.70
2018-06-05T20:52:16.518Z,13.97
2018-06-05T20:54:44.281Z,10.80
2018-06-05T20:57:12.251Z,11.63
2018-06-05T20:59:40.072Z,12.27
2018-06-05T21:02:07.879Z,9.97
2018-06-05T21:04:35.623Z,11.93
2018-06-05T21:07:03.433Z,13.53
2018-06-05T21:09:31.114Z,9.30
2018-06-05T21:11:58.790Z,13.70
2018-06-05T21:14:26.451Z,9.50
2018-06-05T21:16:54.274Z,13.07
2018-06-05T21:19:21.919Z,11.97
2018-06-05T21:21:49.609Z,11.00
2018-06-05T21:24:17.290Z,15.53
2018-06-05T21:26:44.954Z,15.33
2018-06-05T21:29:12.617Z,15.13
2018-06-05T21:31:40.278Z,14.90
2018-06-05T21:34:07.958Z,16.33
2018-06-05T21:36:36.623Z,14.43
2018-06-05T21:39:08.080Z,17.10
2018-06-05T21:41:35.749Z,11.50
2018-06-05T21:44:03.694Z,12.13
2018-06-05T21:46:31.354Z,16.73
2018-06-05T21:48:59.061Z,14.07
2018-06-05T21:51:26.759Z,11.13
2018-06-05T21:53:54.422Z,15.83
2018-06-05T21:56:22.070Z,16.13
2018-06-05T21:58:49.766Z,16.67
2018-06-05T22:01:17.449Z,13.30
2018-06-05T22:03:45.128Z,14.93
2018-06-05T22:06:17.865Z,14.80
2018-06-05T22:08:45.543Z,10.77
2018-06-05T22:11:13.225Z,15.20
2018-06-05T22:13:40.918Z,12.87
2018-06-05T22:16:08.609Z,12.60
2018-06-05T22:18:36.265Z,15.00
2018-06-05T22:21:03.954Z,13.13
2018-06-05T22:23:31.660Z,12.30
2018-06-05T22:25:59.321Z,14.33
2018-06-05T22:28:26.969Z,11.87
2018-06-05T22:30:54.645Z,15.07
2018-06-05T22:33:22.326Z,14.70
2018-06-05T22:35:50.001Z,10.97
2018-06-05T22:38:17.669Z,14.90
2018-06-05T22:40:45.325Z,14.10
2018-06-05T22:43:13.844Z,11.57
2018-06-05T22:45:41.481Z,13.23
2018-06-05T22:48:09.187Z,12.67
2018-06-05T22:50:36.893Z,12.27
2018-06-05T22:53:04.743Z,10.87
2018-06-05T22:55:33.258Z,11.87
2018-06-05T22:58:00.943Z,14.57
2018-06-05T23:00:31.881Z,11.10
2018-06-05T23:02:59.577Z,12.70
2018-06-05T23:05:27.328Z,16.37
2018-06-05T23:07:55.011Z,11.70
2018-06-05T23:10:22.685Z,14.37
2018-06-05T23:12:50.403Z,13.87
2018-06-05T23:15:18.164Z,15.43
2018-06-05T23:17:45.847Z,12.10
2018-06-05T23:20:13.506Z,14.50
2018-06-05T23:22:41.195Z,12.97
2018-06-05T23:25:08.899Z,10.43
2018-06-05T23:27:36.574Z,12.07
2018-06-05T23:30:04.351Z,12.47
2018-06-05T23:32:32.034Z,14.63
2018-06-05T23:34:59.706Z,14.03
2018-06-05T23:37:27.357Z,14.80
2018-06-05T23:39:54.997Z,13.87
2018-06-05T23:42:22.723Z,13.43
2018-06-05T23:44:50.369Z,13.60
2018-06-05T23:47:18.049Z,16.70
2018-06-05T23:49:45.721Z,15.40
2018-06-05T23:52:13.399Z,15.00
2018-06-05T23:54:41.084Z,13.00
2018-06-05T23:57:09.471Z,15.97
2018-06-05T23:59:37.133Z,16.00
